Terminal Aerodrome Forecast
Issued by NWS

Home | Current Version | Previous Version | Graphics & Text | Print | Product List | Glossary Off
Versions: 1 2 3 4 5 6 7 8 9 10 11 12 13 14 15 16 17 18 19 20 21 22 23 24 25 26 27 28 29

000
FTUS43 KABR 290500
TAFMBG
TAF
KMBG 290539Z 2906/3006 VRB03KT P6SM OVC007
      TEMPO 2906/2908 5SM BR OVC005
     FM290800 VRB03KT 3SM BR OVC005
     FM291000 VRB03KT 1SM BR OVC003
     FM291500 VRB05KT P6SM SKC
     FM291700 35010KT P6SM SKC
     FM292000 35010KT P6SM VCSH BKN040=

USA.gov is the U.S. government's official web portal to all federal, state and local government web resources and services.